sensor_id;sensor_type;location;lat;lon;timestamp;P1;durP1;ratioP1;P2;durP2;ratioP2
53710;SDS011;39605;52.704;6.752;2023-05-25T00:00:17;5.00;;;1.55;;
53710;SDS011;39605;52.704;6.752;2023-05-25T00:02:44;5.05;;;1.40;;
53710;SDS011;39605;52.704;6.752;2023-05-25T00:05:11;5.72;;;1.90;;
53710;SDS011;39605;52.704;6.752;2023-05-25T00:07:38;6.47;;;1.92;;
53710;SDS011;39605;52.704;6.752;2023-05-25T00:10:05;5.82;;;2.20;;
53710;SDS011;39605;52.704;6.752;2023-05-25T00:12:32;4.68;;;1.80;;
53710;SDS011;39605;52.704;6.752;2023-05-25T00:14:58;5.13;;;2.00;;
53710;SDS011;39605;52.704;6.752;2023-05-25T00:17:24;3.75;;;2.10;;
53710;SDS011;39605;52.704;6.752;2023-05-25T00:19:56;3.70;;;1.92;;
53710;SDS011;39605;52.704;6.752;2023-05-25T00:22:22;5.80;;;1.75;;
53710;SDS011;39605;52.704;6.752;2023-05-25T00:24:53;4.13;;;1.90;;
53710;SDS011;39605;52.704;6.752;2023-05-25T00:27:19;4.32;;;1.85;;
53710;SDS011;39605;52.704;6.752;2023-05-25T00:29:45;6.22;;;2.22;;
53710;SDS011;39605;52.704;6.752;2023-05-25T00:32:11;6.75;;;2.78;;
53710;SDS011;39605;52.704;6.752;2023-05-25T00:34:37;7.03;;;2.20;;
53710;SDS011;39605;52.704;6.752;2023-05-25T00:37:03;5.15;;;2.17;;
53710;SDS011;39605;52.704;6.752;2023-05-25T00:39:29;4.68;;;2.53;;
53710;SDS011;39605;52.704;6.752;2023-05-25T00:41:56;5.07;;;2.05;;
53710;SDS011;39605;52.704;6.752;2023-05-25T00:44:22;5.38;;;2.33;;
53710;SDS011;39605;52.704;6.752;2023-05-25T00:46:53;4.55;;;1.80;;
53710;SDS011;39605;52.704;6.752;2023-05-25T00:49:20;3.97;;;1.85;;
53710;SDS011;39605;52.704;6.752;2023-05-25T00:51:47;6.75;;;2.42;;
53710;SDS011;39605;52.704;6.752;2023-05-25T00:57:00;4.60;;;2.17;;
53710;SDS011;39605;52.704;6.752;2023-05-25T00:59:34;5.15;;;2.75;;
53710;SDS011;39605;52.704;6.752;2023-05-25T01:02:06;5.28;;;2.45;;
53710;SDS011;39605;52.704;6.752;2023-05-25T01:04:33;6.07;;;2.45;;
53710;SDS011;39605;52.704;6.752;2023-05-25T01:06:59;7.95;;;3.13;;
53710;SDS011;39605;52.704;6.752;2023-05-25T01:09:27;6.50;;;3.03;;
53710;SDS011;39605;52.704;6.752;2023-05-25T01:11:54;4.75;;;2.38;;
53710;SDS011;39605;52.704;6.752;2023-05-25T01:14:21;2.47;;;2.25;;
53710;SDS011;39605;52.704;6.752;2023-05-25T01:16:48;8.80;;;3.65;;
53710;SDS011;39605;52.704;6.752;2023-05-25T01:19:15;4.25;;;2.33;;
53710;SDS011;39605;52.704;6.752;2023-05-25T01:24:24;7.95;;;2.35;;
53710;SDS011;39605;52.704;6.752;2023-05-25T01:26:57;6.00;;;2.92;;
53710;SDS011;39605;52.704;6.752;2023-05-25T01:29:25;5.30;;;2.25;;
53710;SDS011;39605;52.704;6.752;2023-05-25T01:31:53;5.90;;;2.50;;
53710;SDS011;39605;52.704;6.752;2023-05-25T01:34:20;4.97;;;2.75;;
53710;SDS011;39605;52.704;6.752;2023-05-25T01:36:46;7.50;;;2.50;;
53710;SDS011;39605;52.704;6.752;2023-05-25T01:39:13;8.15;;;3.25;;
53710;SDS011;39605;52.704;6.752;2023-05-25T01:41:39;9.50;;;2.83;;
53710;SDS011;39605;52.704;6.752;2023-05-25T01:44:05;7.90;;;3.08;;
53710;SDS011;39605;52.704;6.752;2023-05-25T01:46:38;8.70;;;3.22;;
53710;SDS011;39605;52.704;6.752;2023-05-25T01:49:21;6.88;;;3.03;;
53710;SDS011;39605;52.704;6.752;2023-05-25T01:52:07;7.38;;;3.10;;
53710;SDS011;39605;52.704;6.752;2023-05-25T01:54:37;7.07;;;2.42;;
53710;SDS011;39605;52.704;6.752;2023-05-25T01:57:09;6.47;;;2.85;;
53710;SDS011;39605;52.704;6.752;2023-05-25T01:59:37;5.20;;;2.40;;
53710;SDS011;39605;52.704;6.752;2023-05-25T02:02:03;5.47;;;2.03;;
53710;SDS011;39605;52.704;6.752;2023-05-25T02:04:30;6.22;;;2.88;;
53710;SDS011;39605;52.704;6.752;2023-05-25T02:06:56;7.53;;;3.50;;
53710;SDS011;39605;52.704;6.752;2023-05-25T02:09:22;7.40;;;3.60;;
53710;SDS011;39605;52.704;6.752;2023-05-25T02:11:48;7.40;;;3.17;;
53710;SDS011;39605;52.704;6.752;2023-05-25T02:14:14;4.90;;;2.58;;
53710;SDS011;39605;52.704;6.752;2023-05-25T02:16:41;5.78;;;2.72;;
53710;SDS011;39605;52.704;6.752;2023-05-25T02:19:10;6.78;;;2.75;;
53710;SDS011;39605;52.704;6.752;2023-05-25T02:21:38;4.20;;;3.05;;
53710;SDS011;39605;52.704;6.752;2023-05-25T02:24:05;5.35;;;3.15;;
53710;SDS011;39605;52.704;6.752;2023-05-25T02:26:33;5.95;;;2.60;;
53710;SDS011;39605;52.704;6.752;2023-05-25T02:29:00;6.82;;;2.67;;
53710;SDS011;39605;52.704;6.752;2023-05-25T02:31:26;4.00;;;2.33;;
53710;SDS011;39605;52.704;6.752;2023-05-25T02:33:52;2.95;;;2.50;;
53710;SDS011;39605;52.704;6.752;2023-05-25T02:36:18;3.75;;;2.47;;
53710;SDS011;39605;52.704;6.752;2023-05-25T02:38:45;5.55;;;3.33;;
53710;SDS011;39605;52.704;6.752;2023-05-25T02:41:14;4.40;;;2.72;;
53710;SDS011;39605;52.704;6.752;2023-05-25T02:43:40;5.65;;;2.88;;
53710;SDS011;39605;52.704;6.752;2023-05-25T02:46:06;4.65;;;2.90;;
53710;SDS011;39605;52.704;6.752;2023-05-25T02:48:32;3.90;;;3.05;;
53710;SDS011;39605;52.704;6.752;2023-05-25T02:50:58;10.45;;;5.13;;
53710;SDS011;39605;52.704;6.752;2023-05-25T02:53:24;8.48;;;4.50;;
53710;SDS011;39605;52.704;6.752;2023-05-25T02:55:50;3.70;;;2.65;;
53710;SDS011;39605;52.704;6.752;2023-05-25T02:58:17;5.05;;;2.47;;
53710;SDS011;39605;52.704;6.752;2023-05-25T03:00:43;5.57;;;3.70;;
53710;SDS011;39605;52.704;6.752;2023-05-25T03:03:10;5.25;;;2.78;;
53710;SDS011;39605;52.704;6.752;2023-05-25T03:05:36;5.18;;;2.92;;
53710;SDS011;39605;52.704;6.752;2023-05-25T03:08:02;5.63;;;3.13;;
53710;SDS011;39605;52.704;6.752;2023-05-25T03:10:29;6.22;;;3.35;;
53710;SDS011;39605;52.704;6.752;2023-05-25T03:12:55;6.88;;;3.50;;
53710;SDS011;39605;52.704;6.752;2023-05-25T03:15:21;7.35;;;3.83;;
53710;SDS011;39605;52.704;6.752;2023-05-25T03:17:47;4.60;;;3.83;;
53710;SDS011;39605;52.704;6.752;2023-05-25T03:20:13;9.98;;;3.55;;
53710;SDS011;39605;52.704;6.752;2023-05-25T03:22:41;4.47;;;3.10;;
53710;SDS011;39605;52.704;6.752;2023-05-25T03:25:07;5.47;;;3.38;;
53710;SDS011;39605;52.704;6.752;2023-05-25T03:27:36;4.60;;;4.00;;
53710;SDS011;39605;52.704;6.752;2023-05-25T03:30:03;5.93;;;4.15;;
53710;SDS011;39605;52.704;6.752;2023-05-25T03:32:29;6.93;;;3.42;;
53710;SDS011;39605;52.704;6.752;2023-05-25T03:34:56;4.22;;;3.15;;
53710;SDS011;39605;52.704;6.752;2023-05-25T03:37:22;4.32;;;3.17;;
53710;SDS011;39605;52.704;6.752;2023-05-25T03:39:48;6.78;;;4.50;;
53710;SDS011;39605;52.704;6.752;2023-05-25T03:42:14;8.55;;;4.72;;
53710;SDS011;39605;52.704;6.752;2023-05-25T03:44:40;8.73;;;4.50;;
53710;SDS011;39605;52.704;6.752;2023-05-25T03:47:06;9.77;;;5.97;;
53710;SDS011;39605;52.704;6.752;2023-05-25T03:49:32;6.35;;;4.57;;
53710;SDS011;39605;52.704;6.752;2023-05-25T03:51:58;6.40;;;4.22;;
53710;SDS011;39605;52.704;6.752;2023-05-25T03:54:25;5.00;;;3.80;;
53710;SDS011;39605;52.704;6.752;2023-05-25T03:56:51;5.82;;;4.30;;
53710;SDS011;39605;52.704;6.752;2023-05-25T03:59:17;9.73;;;5.13;;
53710;SDS011;39605;52.704;6.752;2023-05-25T04:01:43;8.65;;;4.57;;
53710;SDS011;39605;52.704;6.752;2023-05-25T04:04:10;5.88;;;4.63;;
53710;SDS011;39605;52.704;6.752;2023-05-25T04:06:36;5.78;;;4.10;;
53710;SDS011;39605;52.704;6.752;2023-05-25T04:09:05;7.65;;;4.75;;
53710;SDS011;39605;52.704;6.752;2023-05-25T04:11:31;7.28;;;4.65;;
53710;SDS011;39605;52.704;6.752;2023-05-25T04:13:57;9.20;;;5.15;;
53710;SDS011;39605;52.704;6.752;2023-05-25T04:16:24;7.20;;;4.78;;
53710;SDS011;39605;52.704;6.752;2023-05-25T04:18:50;8.23;;;5.47;;
53710;SDS011;39605;52.704;6.752;2023-05-25T04:21:16;9.68;;;5.72;;
53710;SDS011;39605;52.704;6.752;2023-05-25T04:23:42;6.47;;;4.25;;
53710;SDS011;39605;52.704;6.752;2023-05-25T04:26:08;6.65;;;4.72;;
53710;SDS011;39605;52.704;6.752;2023-05-25T04:28:35;6.95;;;4.90;;
53710;SDS011;39605;52.704;6.752;2023-05-25T04:31:01;5.60;;;4.53;;
53710;SDS011;39605;52.704;6.752;2023-05-25T04:33:28;5.63;;;4.80;;
53710;SDS011;39605;52.704;6.752;2023-05-25T04:35:54;8.75;;;4.63;;
53710;SDS011;39605;52.704;6.752;2023-05-25T04:38:22;7.38;;;4.65;;
53710;SDS011;39605;52.704;6.752;2023-05-25T04:40:49;7.95;;;5.68;;
53710;SDS011;39605;52.704;6.752;2023-05-25T04:43:16;7.63;;;4.78;;
53710;SDS011;39605;52.704;6.752;2023-05-25T04:45:44;7.78;;;4.72;;
53710;SDS011;39605;52.704;6.752;2023-05-25T04:48:11;7.30;;;5.10;;
53710;SDS011;39605;52.704;6.752;2023-05-25T04:50:37;13.48;;;6.03;;
53710;SDS011;39605;52.704;6.752;2023-05-25T04:53:06;8.35;;;5.57;;
53710;SDS011;39605;52.704;6.752;2023-05-25T04:55:33;9.38;;;5.05;;
53710;SDS011;39605;52.704;6.752;2023-05-25T04:57:59;8.93;;;5.32;;
53710;SDS011;39605;52.704;6.752;2023-05-25T05:00:25;11.82;;;5.90;;
53710;SDS011;39605;52.704;6.752;2023-05-25T05:02:53;7.03;;;5.35;;
53710;SDS011;39605;52.704;6.752;2023-05-25T05:05:20;12.55;;;6.43;;
53710;SDS011;39605;52.704;6.752;2023-05-25T05:07:46;11.75;;;6.93;;
53710;SDS011;39605;52.704;6.752;2023-05-25T05:10:13;11.40;;;7.15;;
53710;SDS011;39605;52.704;6.752;2023-05-25T05:12:39;10.15;;;7.07;;
53710;SDS011;39605;52.704;6.752;2023-05-25T05:15:05;17.05;;;7.35;;
53710;SDS011;39605;52.704;6.752;2023-05-25T05:17:31;9.32;;;6.80;;
53710;SDS011;39605;52.704;6.752;2023-05-25T05:19:58;16.15;;;8.07;;
53710;SDS011;39605;52.704;6.752;2023-05-25T05:22:24;16.42;;;7.57;;
53710;SDS011;39605;52.704;6.752;2023-05-25T05:24:51;12.35;;;7.60;;
53710;SDS011;39605;52.704;6.752;2023-05-25T05:27:17;16.48;;;8.30;;
53710;SDS011;39605;52.704;6.752;2023-05-25T05:29:43;14.32;;;7.45;;
53710;SDS011;39605;52.704;6.752;2023-05-25T05:32:10;14.80;;;8.00;;
53710;SDS011;39605;52.704;6.752;2023-05-25T05:34:36;14.82;;;8.18;;
53710;SDS011;39605;52.704;6.752;2023-05-25T05:37:02;11.93;;;7.00;;
53710;SDS011;39605;52.704;6.752;2023-05-25T05:39:28;14.98;;;7.50;;
53710;SDS011;39605;52.704;6.752;2023-05-25T05:41:54;13.52;;;7.30;;
53710;SDS011;39605;52.704;6.752;2023-05-25T05:44:20;13.75;;;8.02;;
53710;SDS011;39605;52.704;6.752;2023-05-25T05:46:46;18.25;;;7.53;;
53710;SDS011;39605;52.704;6.752;2023-05-25T05:49:12;13.00;;;7.50;;
53710;SDS011;39605;52.704;6.752;2023-05-25T05:51:39;16.73;;;8.25;;
53710;SDS011;39605;52.704;6.752;2023-05-25T05:54:05;11.18;;;7.35;;
53710;SDS011;39605;52.704;6.752;2023-05-25T05:56:31;14.70;;;7.05;;
53710;SDS011;39605;52.704;6.752;2023-05-25T05:58:57;13.65;;;7.13;;
53710;SDS011;39605;52.704;6.752;2023-05-25T06:01:23;11.90;;;6.85;;
53710;SDS011;39605;52.704;6.752;2023-05-25T06:03:49;11.68;;;7.07;;
53710;SDS011;39605;52.704;6.752;2023-05-25T06:06:18;12.70;;;7.00;;
53710;SDS011;39605;52.704;6.752;2023-05-25T06:08:44;17.65;;;7.65;;
53710;SDS011;39605;52.704;6.752;2023-05-25T06:11:10;12.45;;;7.40;;
53710;SDS011;39605;52.704;6.752;2023-05-25T06:13:36;9.95;;;7.13;;
53710;SDS011;39605;52.704;6.752;2023-05-25T06:16:02;10.88;;;7.40;;
53710;SDS011;39605;52.704;6.752;2023-05-25T06:18:29;11.25;;;7.18;;
53710;SDS011;39605;52.704;6.752;2023-05-25T06:20:55;14.60;;;7.20;;
53710;SDS011;39605;52.704;6.752;2023-05-25T06:23:21;14.85;;;7.15;;
53710;SDS011;39605;52.704;6.752;2023-05-25T06:25:47;11.90;;;6.95;;
53710;SDS011;39605;52.704;6.752;2023-05-25T06:28:14;14.40;;;7.43;;
53710;SDS011;39605;52.704;6.752;2023-05-25T06:30:40;17.45;;;7.72;;
53710;SDS011;39605;52.704;6.752;2023-05-25T06:33:06;12.60;;;5.82;;
53710;SDS011;39605;52.704;6.752;2023-05-25T06:35:32;11.90;;;5.53;;
53710;SDS011;39605;52.704;6.752;2023-05-25T06:37:58;15.30;;;6.03;;
53710;SDS011;39605;52.704;6.752;2023-05-25T06:40:24;11.57;;;5.45;;
53710;SDS011;39605;52.704;6.752;2023-05-25T06:42:50;8.00;;;5.05;;
53710;SDS011;39605;52.704;6.752;2023-05-25T06:45:16;9.70;;;5.18;;
53710;SDS011;39605;52.704;6.752;2023-05-25T06:47:43;11.77;;;5.50;;
53710;SDS011;39605;52.704;6.752;2023-05-25T06:50:09;9.88;;;4.05;;
53710;SDS011;39605;52.704;6.752;2023-05-25T06:52:36;8.75;;;4.50;;
53710;SDS011;39605;52.704;6.752;2023-05-25T06:55:02;8.40;;;4.70;;
53710;SDS011;39605;52.704;6.752;2023-05-25T06:57:29;8.25;;;4.70;;
53710;SDS011;39605;52.704;6.752;2023-05-25T06:59:55;6.85;;;3.10;;
53710;SDS011;39605;52.704;6.752;2023-05-25T07:02:21;9.73;;;3.13;;
53710;SDS011;39605;52.704;6.752;2023-05-25T07:04:47;9.10;;;3.45;;
53710;SDS011;39605;52.704;6.752;2023-05-25T07:07:13;6.80;;;2.72;;
53710;SDS011;39605;52.704;6.752;2023-05-25T07:09:39;4.00;;;1.65;;
53710;SDS011;39605;52.704;6.752;2023-05-25T07:12:06;6.88;;;2.13;;
53710;SDS011;39605;52.704;6.752;2023-05-25T07:14:34;5.75;;;2.03;;
53710;SDS011;39605;52.704;6.752;2023-05-25T07:17:00;8.05;;;2.45;;
53710;SDS011;39605;52.704;6.752;2023-05-25T07:19:26;6.95;;;2.50;;
53710;SDS011;39605;52.704;6.752;2023-05-25T07:21:52;7.03;;;2.70;;
53710;SDS011;39605;52.704;6.752;2023-05-25T07:24:18;7.22;;;2.75;;
53710;SDS011;39605;52.704;6.752;2023-05-25T07:26:44;9.68;;;1.92;;
53710;SDS011;39605;52.704;6.752;2023-05-25T07:29:11;8.55;;;2.17;;
53710;SDS011;39605;52.704;6.752;2023-05-25T07:31:37;9.07;;;2.20;;
53710;SDS011;39605;52.704;6.752;2023-05-25T07:34:03;6.60;;;2.33;;
53710;SDS011;39605;52.704;6.752;2023-05-25T07:36:29;8.82;;;2.42;;
53710;SDS011;39605;52.704;6.752;2023-05-25T07:38:56;10.18;;;2.42;;
53710;SDS011;39605;52.704;6.752;2023-05-25T07:41:22;8.35;;;2.45;;
53710;SDS011;39605;52.704;6.752;2023-05-25T07:43:48;5.15;;;2.03;;
53710;SDS011;39605;52.704;6.752;2023-05-25T07:46:16;8.55;;;1.73;;
53710;SDS011;39605;52.704;6.752;2023-05-25T07:48:45;9.15;;;2.13;;
53710;SDS011;39605;52.704;6.752;2023-05-25T07:51:11;7.53;;;1.60;;
53710;SDS011;39605;52.704;6.752;2023-05-25T07:53:37;6.10;;;1.58;;
53710;SDS011;39605;52.704;6.752;2023-05-25T07:56:03;5.35;;;1.38;;
53710;SDS011;39605;52.704;6.752;2023-05-25T07:58:30;8.95;;;1.58;;
53710;SDS011;39605;52.704;6.752;2023-05-25T08:00:56;6.63;;;1.88;;
53710;SDS011;39605;52.704;6.752;2023-05-25T08:03:22;10.73;;;2.20;;
53710;SDS011;39605;52.704;6.752;2023-05-25T08:05:48;9.95;;;2.42;;
53710;SDS011;39605;52.704;6.752;2023-05-25T08:08:15;12.10;;;2.63;;
53710;SDS011;39605;52.704;6.752;2023-05-25T08:10:41;7.75;;;1.90;;
53710;SDS011;39605;52.704;6.752;2023-05-25T08:13:07;4.82;;;1.25;;
53710;SDS011;39605;52.704;6.752;2023-05-25T08:15:33;8.73;;;2.78;;
53710;SDS011;39605;52.704;6.752;2023-05-25T08:17:59;7.72;;;2.20;;
53710;SDS011;39605;52.704;6.752;2023-05-25T08:20:27;5.60;;;1.83;;
53710;SDS011;39605;52.704;6.752;2023-05-25T08:22:53;8.52;;;2.40;;
53710;SDS011;39605;52.704;6.752;2023-05-25T08:25:19;10.13;;;2.50;;
53710;SDS011;39605;52.704;6.752;2023-05-25T08:27:46;12.57;;;2.25;;
53710;SDS011;39605;52.704;6.752;2023-05-25T08:30:13;9.48;;;2.75;;
53710;SDS011;39605;52.704;6.752;2023-05-25T08:32:39;9.50;;;1.80;;
53710;SDS011;39605;52.704;6.752;2023-05-25T08:35:05;9.23;;;1.85;;
53710;SDS011;39605;52.704;6.752;2023-05-25T08:37:32;12.38;;;2.03;;
53710;SDS011;39605;52.704;6.752;2023-05-25T08:39:58;7.57;;;1.85;;
53710;SDS011;39605;52.704;6.752;2023-05-25T08:42:26;7.63;;;2.00;;
53710;SDS011;39605;52.704;6.752;2023-05-25T08:44:53;9.63;;;2.20;;
53710;SDS011;39605;52.704;6.752;2023-05-25T08:47:20;9.80;;;1.77;;
53710;SDS011;39605;52.704;6.752;2023-05-25T08:49:47;9.93;;;2.45;;
53710;SDS011;39605;52.704;6.752;2023-05-25T08:52:14;10.82;;;1.92;;
53710;SDS011;39605;52.704;6.752;2023-05-25T08:54:44;8.20;;;1.70;;
53710;SDS011;39605;52.704;6.752;2023-05-25T08:59:43;10.43;;;1.70;;
53710;SDS011;39605;52.704;6.752;2023-05-25T09:02:15;8.25;;;1.90;;
53710;SDS011;39605;52.704;6.752;2023-05-25T09:04:44;8.65;;;1.50;;
53710;SDS011;39605;52.704;6.752;2023-05-25T09:07:11;8.50;;;1.73;;
53710;SDS011;39605;52.704;6.752;2023-05-25T09:09:38;6.65;;;1.30;;
53710;SDS011;39605;52.704;6.752;2023-05-25T09:12:04;9.98;;;2.33;;
53710;SDS011;39605;52.704;6.752;2023-05-25T09:14:31;10.32;;;2.03;;
53710;SDS011;39605;52.704;6.752;2023-05-25T09:16:58;11.75;;;1.88;;
53710;SDS011;39605;52.704;6.752;2023-05-25T09:19:25;10.18;;;2.13;;
53710;SDS011;39605;52.704;6.752;2023-05-25T09:21:51;10.05;;;1.95;;
53710;SDS011;39605;52.704;6.752;2023-05-25T09:24:17;8.32;;;1.73;;
53710;SDS011;39605;52.704;6.752;2023-05-25T09:26:46;8.90;;;1.77;;
53710;SDS011;39605;52.704;6.752;2023-05-25T09:29:13;11.20;;;2.28;;
53710;SDS011;39605;52.704;6.752;2023-05-25T09:31:40;11.32;;;2.35;;
53710;SDS011;39605;52.704;6.752;2023-05-25T09:34:11;11.73;;;2.08;;
53710;SDS011;39605;52.704;6.752;2023-05-25T09:36:38;9.45;;;1.75;;
53710;SDS011;39605;52.704;6.752;2023-05-25T09:39:11;12.57;;;2.17;;
53710;SDS011;39605;52.704;6.752;2023-05-25T09:41:40;11.00;;;2.90;;
53710;SDS011;39605;52.704;6.752;2023-05-25T09:44:07;20.35;;;3.08;;
53710;SDS011;39605;52.704;6.752;2023-05-25T09:46:33;14.70;;;3.33;;
53710;SDS011;39605;52.704;6.752;2023-05-25T09:49:03;13.07;;;2.50;;
53710;SDS011;39605;52.704;6.752;2023-05-25T09:51:30;14.50;;;2.70;;
53710;SDS011;39605;52.704;6.752;2023-05-25T09:53:58;11.18;;;2.38;;
53710;SDS011;39605;52.704;6.752;2023-05-25T09:56:29;9.57;;;2.22;;
53710;SDS011;39605;52.704;6.752;2023-05-25T09:58:55;13.10;;;2.35;;
53710;SDS011;39605;52.704;6.752;2023-05-25T10:01:22;14.90;;;3.05;;
53710;SDS011;39605;52.704;6.752;2023-05-25T10:03:48;15.98;;;3.22;;
53710;SDS011;39605;52.704;6.752;2023-05-25T10:06:15;14.23;;;3.35;;
53710;SDS011;39605;52.704;6.752;2023-05-25T10:08:45;14.55;;;3.30;;
53710;SDS011;39605;52.704;6.752;2023-05-25T10:11:12;11.98;;;2.60;;
53710;SDS011;39605;52.704;6.752;2023-05-25T10:13:39;11.18;;;2.70;;
53710;SDS011;39605;52.704;6.752;2023-05-25T10:16:06;14.68;;;2.60;;
53710;SDS011;39605;52.704;6.752;2023-05-25T10:18:34;11.73;;;2.90;;
53710;SDS011;39605;52.704;6.752;2023-05-25T10:21:01;14.32;;;3.00;;
53710;SDS011;39605;52.704;6.752;2023-05-25T10:23:35;13.07;;;2.83;;
53710;SDS011;39605;52.704;6.752;2023-05-25T10:26:02;15.50;;;3.20;;
53710;SDS011;39605;52.704;6.752;2023-05-25T10:28:36;15.00;;;3.38;;
53710;SDS011;39605;52.704;6.752;2023-05-25T10:31:02;12.85;;;3.65;;
53710;SDS011;39605;52.704;6.752;2023-05-25T10:33:30;14.02;;;3.42;;
53710;SDS011;39605;52.704;6.752;2023-05-25T10:35:56;14.18;;;3.05;;
53710;SDS011;39605;52.704;6.752;2023-05-25T10:38:23;15.07;;;3.03;;
53710;SDS011;39605;52.704;6.752;2023-05-25T10:40:50;13.05;;;3.33;;
53710;SDS011;39605;52.704;6.752;2023-05-25T10:43:17;11.75;;;3.13;;
53710;SDS011;39605;52.704;6.752;2023-05-25T10:45:44;14.88;;;3.33;;
53710;SDS011;39605;52.704;6.752;2023-05-25T10:48:10;14.32;;;3.05;;
53710;SDS011;39605;52.704;6.752;2023-05-25T10:50:36;16.98;;;4.05;;
53710;SDS011;39605;52.704;6.752;2023-05-25T10:53:11;12.45;;;3.20;;
53710;SDS011;39605;52.704;6.752;2023-05-25T10:58:19;13.50;;;3.42;;
53710;SDS011;39605;52.704;6.752;2023-05-25T11:06:07;15.15;;;3.45;;
53710;SDS011;39605;52.704;6.752;2023-05-25T11:08:47;10.40;;;2.35;;
53710;SDS011;39605;52.704;6.752;2023-05-25T11:11:14;12.30;;;3.45;;
53710;SDS011;39605;52.704;6.752;2023-05-25T11:13:43;12.60;;;3.03;;
53710;SDS011;39605;52.704;6.752;2023-05-25T11:18:42;12.02;;;3.65;;
53710;SDS011;39605;52.704;6.752;2023-05-25T11:21:10;13.90;;;4.10;;
53710;SDS011;39605;52.704;6.752;2023-05-25T11:23:58;13.93;;;3.03;;
53710;SDS011;39605;52.704;6.752;2023-05-25T11:26:28;13.65;;;3.03;;
53710;SDS011;39605;52.704;6.752;2023-05-25T11:28:54;18.40;;;3.35;;
53710;SDS011;39605;52.704;6.752;2023-05-25T11:31:26;14.88;;;3.63;;
53710;SDS011;39605;52.704;6.752;2023-05-25T11:33:57;12.75;;;3.15;;
53710;SDS011;39605;52.704;6.752;2023-05-25T11:36:25;12.95;;;3.10;;
53710;SDS011;39605;52.704;6.752;2023-05-25T11:38:51;12.25;;;3.25;;
53710;SDS011;39605;52.704;6.752;2023-05-25T11:41:18;12.23;;;3.10;;
53710;SDS011;39605;52.704;6.752;2023-05-25T11:43:46;12.90;;;3.05;;
53710;SDS011;39605;52.704;6.752;2023-05-25T11:46:12;12.77;;;3.38;;
53710;SDS011;39605;52.704;6.752;2023-05-25T11:48:42;12.68;;;3.25;;
53710;SDS011;39605;52.704;6.752;2023-05-25T11:51:08;12.57;;;3.33;;
53710;SDS011;39605;52.704;6.752;2023-05-25T11:53:39;12.70;;;3.05;;
53710;SDS011;39605;52.704;6.752;2023-05-25T11:56:05;14.57;;;3.45;;
53710;SDS011;39605;52.704;6.752;2023-05-25T11:58:32;13.52;;;3.25;;
53710;SDS011;39605;52.704;6.752;2023-05-25T12:01:17;12.00;;;3.13;;
53710;SDS011;39605;52.704;6.752;2023-05-25T12:03:44;7.32;;;2.30;;
53710;SDS011;39605;52.704;6.752;2023-05-25T12:08:49;13.07;;;3.83;;
53710;SDS011;39605;52.704;6.752;2023-05-25T12:11:15;8.57;;;2.58;;
53710;SDS011;39605;52.704;6.752;2023-05-25T12:13:42;7.57;;;2.25;;
53710;SDS011;39605;52.704;6.752;2023-05-25T12:16:08;11.45;;;2.75;;
53710;SDS011;39605;52.704;6.752;2023-05-25T12:18:34;10.55;;;2.85;;
53710;SDS011;39605;52.704;6.752;2023-05-25T12:21:00;12.75;;;3.20;;
53710;SDS011;39605;52.704;6.752;2023-05-25T12:23:32;11.73;;;3.30;;
53710;SDS011;39605;52.704;6.752;2023-05-25T12:26:07;10.93;;;2.42;;
53710;SDS011;39605;52.704;6.752;2023-05-25T12:28:33;13.40;;;3.42;;
53710;SDS011;39605;52.704;6.752;2023-05-25T12:31:18;10.32;;;2.90;;
53710;SDS011;39605;52.704;6.752;2023-05-25T12:33:45;12.18;;;3.28;;
53710;SDS011;39605;52.704;6.752;2023-05-25T12:36:11;15.00;;;3.95;;
53710;SDS011;39605;52.704;6.752;2023-05-25T12:38:37;10.88;;;2.97;;
53710;SDS011;39605;52.704;6.752;2023-05-25T12:41:06;11.85;;;3.55;;
53710;SDS011;39605;52.704;6.752;2023-05-25T12:43:36;10.40;;;3.17;;
53710;SDS011;39605;52.704;6.752;2023-05-25T12:46:02;13.90;;;3.10;;
53710;SDS011;39605;52.704;6.752;2023-05-25T12:48:28;10.82;;;2.90;;
53710;SDS011;39605;52.704;6.752;2023-05-25T12:50:56;12.40;;;3.17;;
53710;SDS011;39605;52.704;6.752;2023-05-25T12:53:22;12.02;;;3.00;;
53710;SDS011;39605;52.704;6.752;2023-05-25T12:55:49;10.35;;;2.95;;
53710;SDS011;39605;52.704;6.752;2023-05-25T12:58:27;11.30;;;3.63;;
53710;SDS011;39605;52.704;6.752;2023-05-25T13:00:54;11.18;;;3.50;;
53710;SDS011;39605;52.704;6.752;2023-05-25T13:03:20;8.77;;;2.78;;
53710;SDS011;39605;52.704;6.752;2023-05-25T13:05:46;9.40;;;3.13;;
53710;SDS011;39605;52.704;6.752;2023-05-25T13:08:12;8.23;;;2.58;;
53710;SDS011;39605;52.704;6.752;2023-05-25T13:10:39;12.45;;;3.45;;
53710;SDS011;39605;52.704;6.752;2023-05-25T13:13:05;12.10;;;3.08;;
53710;SDS011;39605;52.704;6.752;2023-05-25T13:15:31;12.93;;;3.05;;
53710;SDS011;39605;52.704;6.752;2023-05-25T13:17:58;14.18;;;3.47;;
53710;SDS011;39605;52.704;6.752;2023-05-25T13:20:24;13.45;;;3.08;;
53710;SDS011;39605;52.704;6.752;2023-05-25T13:22:51;12.98;;;3.35;;
53710;SDS011;39605;52.704;6.752;2023-05-25T13:25:17;11.05;;;2.85;;
53710;SDS011;39605;52.704;6.752;2023-05-25T13:27:47;13.30;;;3.88;;
53710;SDS011;39605;52.704;6.752;2023-05-25T13:30:13;14.30;;;3.75;;
53710;SDS011;39605;52.704;6.752;2023-05-25T13:32:40;12.07;;;2.67;;
53710;SDS011;39605;52.704;6.752;2023-05-25T13:35:10;12.45;;;3.85;;
53710;SDS011;39605;52.704;6.752;2023-05-25T13:37:42;12.30;;;3.10;;
53710;SDS011;39605;52.704;6.752;2023-05-25T13:40:08;11.68;;;3.13;;
53710;SDS011;39605;52.704;6.752;2023-05-25T13:42:35;10.43;;;3.70;;
53710;SDS011;39605;52.704;6.752;2023-05-25T13:45:01;12.45;;;3.90;;
53710;SDS011;39605;52.704;6.752;2023-05-25T13:47:27;12.13;;;3.60;;
53710;SDS011;39605;52.704;6.752;2023-05-25T13:49:53;11.77;;;3.25;;
53710;SDS011;39605;52.704;6.752;2023-05-25T13:52:19;14.10;;;3.97;;
53710;SDS011;39605;52.704;6.752;2023-05-25T13:54:45;11.38;;;3.47;;
53710;SDS011;39605;52.704;6.752;2023-05-25T13:57:11;11.30;;;3.08;;
53710;SDS011;39605;52.704;6.752;2023-05-25T13:59:37;13.27;;;3.65;;
53710;SDS011;39605;52.704;6.752;2023-05-25T14:02:03;17.50;;;3.97;;
53710;SDS011;39605;52.704;6.752;2023-05-25T14:04:30;14.38;;;3.53;;
53710;SDS011;39605;52.704;6.752;2023-05-25T14:06:56;15.13;;;3.75;;
53710;SDS011;39605;52.704;6.752;2023-05-25T14:09:22;12.95;;;3.85;;
53710;SDS011;39605;52.704;6.752;2023-05-25T14:11:48;11.93;;;3.47;;
53710;SDS011;39605;52.704;6.752;2023-05-25T14:14:16;14.70;;;4.30;;
53710;SDS011;39605;52.704;6.752;2023-05-25T14:16:42;13.50;;;3.83;;
53710;SDS011;39605;52.704;6.752;2023-05-25T14:19:08;13.20;;;3.88;;
53710;SDS011;39605;52.704;6.752;2023-05-25T14:21:34;17.27;;;3.92;;
53710;SDS011;39605;52.704;6.752;2023-05-25T14:24:01;15.80;;;3.80;;
53710;SDS011;39605;52.704;6.752;2023-05-25T14:26:27;11.70;;;3.45;;
53710;SDS011;39605;52.704;6.752;2023-05-25T14:28:53;13.80;;;3.80;;
53710;SDS011;39605;52.704;6.752;2023-05-25T14:31:19;15.73;;;4.38;;
53710;SDS011;39605;52.704;6.752;2023-05-25T14:33:45;11.60;;;3.33;;
53710;SDS011;39605;52.704;6.752;2023-05-25T14:36:11;11.93;;;3.20;;
53710;SDS011;39605;52.704;6.752;2023-05-25T14:38:38;11.38;;;3.15;;
53710;SDS011;39605;52.704;6.752;2023-05-25T14:41:04;14.82;;;3.95;;
53710;SDS011;39605;52.704;6.752;2023-05-25T14:43:30;11.57;;;3.22;;
53710;SDS011;39605;52.704;6.752;2023-05-25T14:45:59;13.35;;;3.40;;
53710;SDS011;39605;52.704;6.752;2023-05-25T14:48:25;13.23;;;3.70;;
53710;SDS011;39605;52.704;6.752;2023-05-25T14:50:51;13.05;;;3.38;;
53710;SDS011;39605;52.704;6.752;2023-05-25T14:53:18;13.95;;;3.42;;
53710;SDS011;39605;52.704;6.752;2023-05-25T14:55:44;12.02;;;3.33;;
53710;SDS011;39605;52.704;6.752;2023-05-25T14:58:10;13.02;;;3.28;;
53710;SDS011;39605;52.704;6.752;2023-05-25T15:00:36;14.52;;;3.25;;